createdAt,value
2017-09-30T00:00:17.412Z,1016.45
2017-09-30T00:01:29.293Z,1016.42
2017-09-30T00:02:41.472Z,1016.43
2017-09-30T00:03:53.335Z,1016.44
2017-09-30T00:05:05.831Z,1016.47
2017-09-30T00:06:17.701Z,1016.47
2017-09-30T00:07:29.922Z,1016.46
2017-09-30T00:08:42.426Z,1016.44
2017-09-30T00:09:54.602Z,1016.44
2017-09-30T00:11:07.095Z,1016.42
2017-09-30T00:12:18.979Z,1016.44
2017-09-30T00:13:31.163Z,1016.34
2017-09-30T00:14:43.060Z,1016.4
2017-09-30T00:15:54.942Z,1016.38
2017-09-30T00:17:07.437Z,1016.39
2017-09-30T00:18:19.608Z,1016.39
2017-09-30T00:19:32.078Z,1016.34
2017-09-30T00:20:44.282Z,1016.39
2017-09-30T00:21:56.771Z,1016.35
2017-09-30T00:23:08.641Z,1016.34
2017-09-30T00:24:20.811Z,1016.28
2017-09-30T00:25:32.983Z,1016.3
2017-09-30T00:26:44.885Z,1016.35
2017-09-30T00:27:57.360Z,1016.38
2017-09-30T00:29:09.544Z,1016.36
2017-09-30T00:30:21.714Z,1016.39
2017-09-30T00:31:34.209Z,1016.41
2017-09-30T00:32:46.068Z,1016.42
2017-09-30T00:33:58.253Z,1016.43
2017-09-30T00:35:10.147Z,1016.38
2017-09-30T00:36:22.318Z,1016.35
2017-09-30T00:37:34.813Z,1016.38
2017-09-30T00:38:47.296Z,1016.36
2017-09-30T00:39:59.479Z,1016.32
2017-09-30T00:41:11.650Z,1016.32
2017-09-30T00:42:24.147Z,1016.32
2017-09-30T00:43:36.016Z,1016.35
2017-09-30T00:44:48.187Z,1016.31
2017-09-30T00:46:00.691Z,1016.29
2017-09-30T00:47:13.165Z,1016.28
2017-09-30T00:48:25.349Z,1016.24
2017-09-30T00:49:37.829Z,1016.26
2017-09-30T00:50:50.016Z,1016.24
2017-09-30T00:52:02.487Z,1016.19
2017-09-30T00:53:14.659Z,1016.16
2017-09-30T00:54:26.836Z,1016.17
2017-09-30T00:55:39.323Z,1016.1
2017-09-30T00:56:51.202Z,1016.16
2017-09-30T00:58:03.379Z,1016.15
2017-09-30T00:59:15.561Z,1016.14
2017-09-30T01:00:28.041Z,1016.1
2017-09-30T01:01:39.926Z,1016.09
2017-09-30T01:02:52.396Z,1016.12
2017-09-30T01:04:04.876Z,1016.08
2017-09-30T01:05:17.363Z,1016.1
2017-09-30T01:06:29.534Z,1016.09
2017-09-30T01:07:42.014Z,1016.14
2017-09-30T01:08:54.200Z,1016.13
2017-09-30T01:10:06.371Z,1016.11
2017-09-30T01:11:18.577Z,1016.12
2017-09-30T01:12:30.770Z,1016.09
2017-09-30T01:13:43.258Z,1016.11
2017-09-30T01:14:55.429Z,1016.1
2017-09-30T01:16:07.632Z,1016.11
2017-09-30T01:17:20.119Z,1016.09
2017-09-30T01:18:32.615Z,1016.11
2017-09-30T01:19:45.038Z,1016.09
2017-09-30T01:20:57.206Z,1016.1
2017-09-30T01:22:09.402Z,1016.08
2017-09-30T01:23:21.559Z,1016.05
2017-09-30T01:24:34.043Z,1016.04
2017-09-30T01:25:46.214Z,1016.04
2017-09-30T01:26:58.710Z,1016.06
2017-09-30T01:28:11.180Z,1016.04
2017-09-30T01:29:23.050Z,1016.08
2017-09-30T01:30:35.238Z,1016.05
2017-09-30T01:31:47.718Z,1016.04
2017-09-30T01:33:00.213Z,1016.04
2017-09-30T01:34:12.392Z,1016.03
2017-09-30T01:35:24.880Z,1015.97
2017-09-30T01:36:37.050Z,1016.01
2017-09-30T01:37:48.929Z,1015.94
2017-09-30T01:39:01.417Z,1015.93
2017-09-30T01:40:13.912Z,1015.91
2017-09-30T01:41:26.383Z,1015.94
2017-09-30T01:42:38.561Z,1015.93
2017-09-30T01:43:51.049Z,1015.93
2017-09-30T01:45:03.520Z,1015.97
2017-09-30T01:46:15.390Z,1015.97
2017-09-30T01:47:27.586Z,1015.93
2017-09-30T01:48:40.057Z,1015.93
2017-09-30T01:49:52.552Z,1015.91
2017-09-30T01:51:05.034Z,1015.87
2017-09-30T01:52:17.468Z,1015.88
2017-09-30T01:53:29.639Z,1015.92
2017-09-30T01:54:41.520Z,1015.9
2017-09-30T01:55:54.012Z,1015.92
2017-09-30T01:57:06.501Z,1015.88
2017-09-30T01:58:18.971Z,1015.88
2017-09-30T01:59:30.850Z,1015.87
2017-09-30T02:00:43.345Z,1015.82
2017-09-30T02:01:55.533Z,1015.8
2017-09-30T02:03:08.255Z,1015.79
2017-09-30T02:04:20.424Z,1015.75
2017-09-30T02:05:32.599Z,1015.73
2017-09-30T02:06:45.077Z,1015.73
2017-09-30T02:07:57.561Z,1015.76
2017-09-30T02:09:09.775Z,1015.72
2017-09-30T02:10:21.660Z,1015.73
2017-09-30T02:11:34.149Z,1015.71
2017-09-30T02:12:46.021Z,1015.7
2017-09-30T02:13:57.878Z,1015.71
2017-09-30T02:15:10.049Z,1015.71
2017-09-30T02:16:22.231Z,1015.71
2017-09-30T02:17:34.415Z,1015.73
2017-09-30T02:18:46.598Z,1015.68
2017-09-30T02:19:59.096Z,1015.73
2017-09-30T02:21:11.589Z,1015.69
2017-09-30T02:22:23.446Z,1015.66
2017-09-30T02:23:35.615Z,1015.63
2017-09-30T02:24:47.809Z,1015.66
2017-09-30T02:25:59.971Z,1015.65
2017-09-30T02:27:12.154Z,1015.66
2017-09-30T02:28:24.045Z,1015.69
2017-09-30T02:29:35.919Z,1015.67
2017-09-30T02:30:48.405Z,1015.66
2017-09-30T02:32:00.903Z,1015.69
2017-09-30T02:33:13.095Z,1015.66
2017-09-30T02:34:24.979Z,1015.7
2017-09-30T02:35:37.737Z,1015.67
2017-09-30T02:36:49.933Z,1015.71
2017-09-30T02:38:02.103Z,1015.67
2017-09-30T02:39:13.983Z,1015.68
2017-09-30T02:40:26.470Z,1015.68
2017-09-30T02:41:38.974Z,1015.69
2017-09-30T02:42:51.461Z,1015.67
2017-09-30T02:44:03.646Z,1015.64
2017-09-30T02:45:15.838Z,1015.7
2017-09-30T02:46:27.973Z,1015.7
2017-09-30T02:47:40.151Z,1015.66
2017-09-30T02:48:52.673Z,1015.68
2017-09-30T02:50:04.863Z,1015.66
2017-09-30T02:51:16.730Z,1015.63
2017-09-30T02:52:28.601Z,1015.62
2017-09-30T02:53:41.096Z,1015.59
2017-09-30T02:54:53.275Z,1015.62
2017-09-30T02:56:05.448Z,1015.63
2017-09-30T02:57:17.647Z,1015.63
2017-09-30T02:58:29.528Z,1015.62
2017-09-30T02:59:41.684Z,1015.64
2017-09-30T03:00:54.178Z,1015.62
2017-09-30T03:02:06.354Z,1015.64
2017-09-30T03:03:18.842Z,1015.61
2017-09-30T03:04:31.318Z,1015.65
2017-09-30T03:05:43.803Z,1015.61
2017-09-30T03:06:56.299Z,1015.62
2017-09-30T03:08:08.769Z,1015.63
2017-09-30T03:09:20.940Z,1015.59
2017-09-30T03:10:33.411Z,1015.57
2017-09-30T03:11:45.592Z,1015.53
2017-09-30T03:12:57.764Z,1015.57
2017-09-30T03:14:10.249Z,1015.57
2017-09-30T03:15:22.744Z,1015.53
2017-09-30T03:16:35.213Z,1015.58
2017-09-30T03:17:47.085Z,1015.58
2017-09-30T03:18:59.583Z,1015.53
2017-09-30T03:20:11.477Z,1015.5
2017-09-30T03:21:23.647Z,1015.48
2017-09-30T03:22:35.817Z,1015.47
2017-09-30T03:23:48.313Z,1015.46
2017-09-30T03:25:00.483Z,1015.46
2017-09-30T03:26:12.054Z,1015.47
2017-09-30T03:27:24.233Z,1015.42
2017-09-30T03:28:36.706Z,1015.41
2017-09-30T03:29:48.566Z,1015.41
2017-09-30T03:31:00.737Z,1015.39
2017-09-30T03:32:13.213Z,1015.47
2017-09-30T03:33:25.710Z,1015.43
2017-09-30T03:34:37.874Z,1015.45
2017-09-30T03:35:50.353Z,1015.47
2017-09-30T03:37:02.548Z,1015.5
2017-09-30T03:38:15.021Z,1015.44
2017-09-30T03:39:27.214Z,1015.43
2017-09-30T03:40:39.401Z,1015.48
2017-09-30T03:41:51.904Z,1015.46
2017-09-30T03:43:04.068Z,1015.49
2017-09-30T03:44:16.539Z,1015.49
2017-09-30T03:45:28.718Z,1015.5
2017-09-30T03:46:40.904Z,1015.49
2017-09-30T03:47:53.400Z,1015.46
2017-09-30T03:49:05.882Z,1015.43
2017-09-30T03:50:18.067Z,1015.44
2017-09-30T03:51:30.487Z,1015.44
2017-09-30T03:52:42.658Z,1015.38
2017-09-30T03:53:54.529Z,1015.4
2017-09-30T03:55:06.999Z,1015.38
2017-09-30T03:56:19.170Z,1015.38
2017-09-30T03:57:31.674Z,1015.37
2017-09-30T03:58:44.161Z,1015.37
2017-09-30T03:59:56.332Z,1015.35
2017-09-30T04:01:08.813Z,1015.25
2017-09-30T04:02:21.003Z,1015.25
2017-09-30T04:03:33.495Z,1015.27
2017-09-30T04:04:45.673Z,1015.25
2017-09-30T04:05:58.146Z,1015.24
2017-09-30T04:07:10.639Z,1015.26
2017-09-30T04:08:23.130Z,1015.25
2017-09-30T04:09:35.297Z,1015.28
2017-09-30T04:10:47.467Z,1015.25
2017-09-30T04:11:59.939Z,1015.26
2017-09-30T04:13:12.368Z,1015.24
2017-09-30T04:14:24.540Z,1015.25
2017-09-30T04:15:37.027Z,1015.25
2017-09-30T04:16:49.210Z,1015.23
2017-09-30T04:18:01.393Z,1015.2
2017-09-30T04:19:13.863Z,1015.23
2017-09-30T04:20:26.022Z,1015.27
2017-09-30T04:21:38.211Z,1015.26
2017-09-30T04:22:50.075Z,1015.25
2017-09-30T04:24:02.570Z,1015.27
2017-09-30T04:25:14.449Z,1015.21
2017-09-30T04:26:26.937Z,1015.21
2017-09-30T04:27:39.132Z,1015.17
2017-09-30T04:28:51.292Z,1015.23
2017-09-30T04:30:03.477Z,1015.18
2017-09-30T04:31:15.969Z,1015.19
2017-09-30T04:32:28.139Z,1015.19
2017-09-30T04:33:40.310Z,1015.2
2017-09-30T04:34:53.057Z,1015.18
2017-09-30T04:36:05.215Z,1015.2
2017-09-30T04:37:17.698Z,1015.19
2017-09-30T04:38:30.193Z,1015.17
2017-09-30T04:39:42.665Z,1015.19
2017-09-30T04:40:55.093Z,1015.17
2017-09-30T04:42:07.280Z,1015.18
2017-09-30T04:43:19.451Z,1015.18
2017-09-30T04:44:31.622Z,1015.15
2017-09-30T04:45:43.792Z,1015.18
2017-09-30T04:46:55.952Z,1015.11
2017-09-30T04:48:08.133Z,1015.1
2017-09-30T04:49:20.604Z,1015.13
2017-09-30T04:50:32.775Z,1015.11
2017-09-30T04:51:44.953Z,1015.07
2017-09-30T04:52:57.142Z,1015.04
2017-09-30T04:54:09.637Z,1015.03
2017-09-30T04:55:21.808Z,1015.04
2017-09-30T04:56:34.303Z,1015.05
2017-09-30T04:57:46.182Z,1015.06
2017-09-30T04:58:58.669Z,1015.09
2017-09-30T05:00:11.140Z,1015.1
2017-09-30T05:01:23.628Z,1015.07
2017-09-30T05:02:36.107Z,1015.08
2017-09-30T05:03:48.608Z,1015.09
2017-09-30T05:05:01.123Z,1015.08
2017-09-30T05:06:13.593Z,1015.05
2017-09-30T05:07:25.771Z,1015.08
2017-09-30T05:08:37.966Z,1015.03
2017-09-30T05:09:50.130Z,1015
2017-09-30T05:11:02.626Z,1015.02
2017-09-30T05:12:14.805Z,1015
2017-09-30T05:13:26.978Z,1015.02
2017-09-30T05:14:38.852Z,1014.99
2017-09-30T05:15:51.334Z,1015
2017-09-30T05:17:03.804Z,1015.02
2017-09-30T05:18:15.932Z,1015.03
2017-09-30T05:19:28.100Z,1015.03
2017-09-30T05:20:40.592Z,1015.03
2017-09-30T05:21:53.061Z,1015.02
2017-09-30T05:23:04.919Z,1014.99
2017-09-30T05:24:17.403Z,1015.04
2017-09-30T05:25:29.899Z,1015.02
2017-09-30T05:26:42.070Z,1015.01
2017-09-30T05:27:54.276Z,1015.02
2017-09-30T05:29:06.461Z,1015.01
2017-09-30T05:30:18.341Z,1015.01
2017-09-30T05:31:30.211Z,1015.04
2017-09-30T05:32:42.698Z,1015.05
2017-09-30T05:33:54.568Z,1015.03
2017-09-30T05:35:06.751Z,1015.05
2017-09-30T05:36:18.943Z,1015.03
2017-09-30T05:37:31.131Z,1015.07
2017-09-30T05:38:43.301Z,1015.02
2017-09-30T05:39:55.473Z,1015.04
2017-09-30T05:41:07.968Z,1015.09
2017-09-30T05:42:20.451Z,1015.01
2017-09-30T05:43:32.308Z,1015.08
2017-09-30T05:44:44.179Z,1015.05
2017-09-30T05:45:56.050Z,1015.03
2017-09-30T05:47:08.220Z,1015.04
2017-09-30T05:48:20.400Z,1015.03
2017-09-30T05:49:32.887Z,1015.02
2017-09-30T05:50:45.368Z,1015.06
2017-09-30T05:51:57.536Z,1015.06
2017-09-30T05:53:09.411Z,1015.11
2017-09-30T05:54:20.977Z,1015.08
2017-09-30T05:55:33.464Z,1015.05
2017-09-30T05:56:45.911Z,1015.05
2017-09-30T05:57:58.108Z,1015.09
2017-09-30T05:59:09.684Z,1015.09
2017-09-30T06:00:21.573Z,1015.08
2017-09-30T06:01:33.768Z,1015.1
2017-09-30T06:02:45.938Z,1015.08
2017-09-30T06:03:58.121Z,1015.13
2017-09-30T06:05:09.990Z,1015.13
2017-09-30T06:06:21.538Z,1015.12
2017-09-30T06:07:33.429Z,1015.12
2017-09-30T06:08:45.595Z,1015.11
2017-09-30T06:09:58.063Z,1015.13
2017-09-30T06:11:09.934Z,1015.11
2017-09-30T06:12:21.815Z,1015.06
2017-09-30T06:13:33.384Z,1015.11
2017-09-30T06:14:45.879Z,1015.06
2017-09-30T06:15:57.745Z,1015.09
2017-09-30T06:17:09.969Z,1015.06
2017-09-30T06:18:21.819Z,1015.05
2017-09-30T06:19:34.304Z,1015.06
2017-09-30T06:20:46.175Z,1015.03
2017-09-30T06:21:58.357Z,1015.07
2017-09-30T06:23:10.840Z,1015.04
2017-09-30T06:24:23.311Z,1015.03
2017-09-30T06:25:35.808Z,1015.06
2017-09-30T06:26:48.281Z,1015.05
2017-09-30T06:28:00.136Z,1015.1
2017-09-30T06:29:12.020Z,1015.05
2017-09-30T06:30:24.523Z,1015.07
2017-09-30T06:31:37.011Z,1015.04
2017-09-30T06:32:49.181Z,1015.08
2017-09-30T06:34:01.651Z,1015.01
2017-09-30T06:35:13.847Z,1014.98
2017-09-30T06:36:26.018Z,1015.02
2017-09-30T06:37:37.913Z,1014.97
2017-09-30T06:38:50.411Z,1014.91
2017-09-30T06:40:02.605Z,1014.96
2017-09-30T06:41:14.476Z,1014.93
2017-09-30T06:42:26.353Z,1014.93
2017-09-30T06:43:38.842Z,1014.9
2017-09-30T06:44:51.314Z,1014.9
2017-09-30T06:46:03.183Z,1014.91
2017-09-30T06:47:15.042Z,1014.92
2017-09-30T06:48:27.524Z,1014.92
2017-09-30T06:49:39.705Z,1014.97
2017-09-30T06:50:52.198Z,1014.94
2017-09-30T06:52:04.362Z,1014.98
2017-09-30T06:53:16.240Z,1014.98
2017-09-30T06:54:28.436Z,1014.99
2017-09-30T06:55:40.602Z,1014.96
2017-09-30T06:56:53.094Z,1014.98
2017-09-30T06:58:05.564Z,1014.97
2017-09-30T06:59:17.435Z,1014.98
2017-09-30T07:00:29.618Z,1014.95
2017-09-30T07:01:42.101Z,1014.96
2017-09-30T07:02:54.597Z,1014.99
2017-09-30T07:04:07.093Z,1014.96
2017-09-30T07:05:18.989Z,1014.97
2017-09-30T07:06:30.558Z,1014.96
2017-09-30T07:07:42.119Z,1014.98
2017-09-30T07:08:54.300Z,1014.97
2017-09-30T07:10:06.778Z,1014.99
2017-09-30T07:11:19.275Z,1015.04
2017-09-30T07:12:31.446Z,1015.01
2017-09-30T07:13:43.608Z,1015.03
2017-09-30T07:14:55.766Z,1015.05
2017-09-30T07:16:07.950Z,1014.99
2017-09-30T07:17:19.805Z,1015.01
2017-09-30T07:18:31.353Z,1015.01
2017-09-30T07:19:43.844Z,1015.01
2017-09-30T07:20:56.016Z,1015
2017-09-30T07:22:08.204Z,1014.95
2017-09-30T07:23:20.698Z,1014.94
2017-09-30T07:24:32.869Z,1014.9
2017-09-30T07:25:44.739Z,1014.86
2017-09-30T07:26:57.210Z,1014.95
2017-09-30T07:28:09.389Z,1014.93
2017-09-30T07:29:21.876Z,1014.9
2017-09-30T07:30:34.050Z,1014.93
2017-09-30T07:31:46.551Z,1014.89
2017-09-30T07:32:58.738Z,1014.89
2017-09-30T07:34:11.209Z,1014.91
2017-09-30T07:35:23.705Z,1014.89
2017-09-30T07:36:35.885Z,1014.88
2017-09-30T07:37:48.379Z,1014.88
2017-09-30T07:39:00.867Z,1014.96
2017-09-30T07:40:13.071Z,1014.87
2017-09-30T07:41:25.557Z,1014.89
2017-09-30T07:42:37.729Z,1014.87
2017-09-30T07:43:49.925Z,1014.86
2017-09-30T07:45:02.104Z,1014.85
2017-09-30T07:46:14.298Z,1014.82
2017-09-30T07:47:26.787Z,1014.84
2017-09-30T07:48:38.958Z,1014.89
2017-09-30T07:49:51.386Z,1014.84
2017-09-30T07:51:03.278Z,1014.85
2017-09-30T07:52:14.877Z,1014.85
2017-09-30T07:53:27.073Z,1014.83
2017-09-30T07:54:39.585Z,1014.84
2017-09-30T07:55:51.779Z,1014.82
2017-09-30T07:57:03.966Z,1014.83
2017-09-30T07:58:16.148Z,1014.82
2017-09-30T07:59:28.668Z,1014.89
2017-09-30T08:00:41.164Z,1014.84
2017-09-30T08:01:53.648Z,1014.84
2017-09-30T08:03:05.838Z,1014.84
2017-09-30T08:04:18.034Z,1014.85
2017-09-30T08:05:29.621Z,1014.86
2017-09-30T08:06:42.117Z,1014.86
2017-09-30T08:07:54.613Z,1014.84
2017-09-30T08:09:07.117Z,1014.77
2017-09-30T08:10:19.011Z,1014.79
2017-09-30T08:11:31.199Z,1014.8
2017-09-30T08:12:43.677Z,1014.82
2017-09-30T08:13:56.167Z,1014.83
2017-09-30T08:15:08.646Z,1014.83
2017-09-30T08:16:20.819Z,1014.8
2017-09-30T08:17:33.010Z,1014.8
2017-09-30T08:18:45.487Z,1014.77
2017-09-30T08:19:57.669Z,1014.75
2017-09-30T08:21:09.864Z,1014.81
2017-09-30T08:22:22.293Z,1014.8
2017-09-30T08:23:34.189Z,1014.78
2017-09-30T08:24:46.376Z,1014.79
2017-09-30T08:25:58.547Z,1014.71
2017-09-30T08:27:10.101Z,1014.7
2017-09-30T08:28:22.272Z,1014.69
2017-09-30T08:29:34.760Z,1014.7
2017-09-30T08:30:47.255Z,1014.69
2017-09-30T08:31:59.450Z,1014.65
2017-09-30T08:33:11.046Z,1014.69
2017-09-30T08:34:23.217Z,1014.6
2017-09-30T08:35:35.712Z,1014.61
2017-09-30T08:36:47.591Z,1014.58
2017-09-30T08:38:00.087Z,1014.59
2017-09-30T08:39:12.561Z,1014.57
2017-09-30T08:40:24.752Z,1014.59
2017-09-30T08:41:36.949Z,1014.59
2017-09-30T08:42:49.444Z,1014.58
2017-09-30T08:44:01.640Z,1014.62
2017-09-30T08:45:13.537Z,1014.61
2017-09-30T08:46:25.732Z,1014.62
2017-09-30T08:47:38.219Z,1014.58
2017-09-30T08:48:50.423Z,1014.64
2017-09-30T08:50:02.310Z,1014.64
2017-09-30T08:51:14.490Z,1014.64
2017-09-30T08:52:26.977Z,1014.61
2017-09-30T08:53:39.457Z,1014.64
2017-09-30T08:54:51.352Z,1014.61
2017-09-30T08:56:03.838Z,1014.56
2017-09-30T08:57:15.447Z,1014.61
2017-09-30T08:58:27.933Z,1014.6
2017-09-30T08:59:40.111Z,1014.55
2017-09-30T09:00:52.300Z,1014.56
2017-09-30T09:02:04.793Z,1014.58
2017-09-30T09:03:16.970Z,1014.53
2017-09-30T09:04:29.166Z,1014.51
2017-09-30T09:05:41.362Z,1014.48
2017-09-30T09:06:53.550Z,1014.43
2017-09-30T09:08:05.446Z,1014.41
2017-09-30T09:09:17.645Z,1014.42
2017-09-30T09:10:30.136Z,1014.42
2017-09-30T09:11:41.707Z,1014.39
2017-09-30T09:12:53.878Z,1014.39
2017-09-30T09:14:06.356Z,1014.33
2017-09-30T09:15:18.852Z,1014.3
2017-09-30T09:16:31.348Z,1014.37
2017-09-30T09:17:43.843Z,1014.3
2017-09-30T09:18:55.717Z,1014.29
2017-09-30T09:20:08.201Z,1014.25
2017-09-30T09:21:20.080Z,1014.29
2017-09-30T09:22:32.577Z,1014.25
2017-09-30T09:23:44.801Z,1014.26
2017-09-30T09:24:56.985Z,1014.27
2017-09-30T09:26:09.163Z,1014.24
2017-09-30T09:27:21.658Z,1014.24
2017-09-30T09:28:33.231Z,1014.2
2017-09-30T09:29:45.727Z,1014.23
2017-09-30T09:30:57.937Z,1014.18
2017-09-30T09:32:10.408Z,1014.2
2017-09-30T09:33:22.912Z,1014.18
2017-09-30T09:34:34.807Z,1014.17
2017-09-30T09:35:47.340Z,1014.13
2017-09-30T09:36:59.540Z,1014.1
2017-09-30T09:38:11.970Z,1014.12
2017-09-30T09:39:24.165Z,1014.09
2017-09-30T09:40:36.353Z,1014.09
2017-09-30T09:41:48.855Z,1014.06
2017-09-30T09:43:00.727Z,1014.03
2017-09-30T09:44:12.623Z,1014.01
2017-09-30T09:45:25.118Z,1014.01
2017-09-30T09:46:37.313Z,1013.94
2017-09-30T09:47:49.512Z,1013.92
2017-09-30T09:49:01.698Z,1013.9
2017-09-30T09:50:13.876Z,1013.89
2017-09-30T09:51:26.373Z,1013.91
2017-09-30T09:52:38.868Z,1013.88
2017-09-30T09:53:50.738Z,1013.86
2017-09-30T09:55:03.232Z,1013.84
2017-09-30T09:56:15.106Z,1013.83
2017-09-30T09:57:26.992Z,1013.82
2017-09-30T09:58:39.487Z,1013.76
2017-09-30T09:59:52.241Z,1013.77
2017-09-30T10:01:04.437Z,1013.81
2017-09-30T10:02:16.633Z,1013.75
2017-09-30T10:03:28.821Z,1013.71
2017-09-30T10:04:41.298Z,1013.72
2017-09-30T10:05:53.487Z,1013.74
2017-09-30T10:07:05.390Z,1013.72
2017-09-30T10:08:17.578Z,1013.7
2017-09-30T10:09:29.757Z,1013.73
2017-09-30T10:10:42.252Z,1013.64
2017-09-30T10:11:54.439Z,1013.67
2017-09-30T10:13:06.335Z,1013.65
2017-09-30T10:14:18.240Z,1013.66
2017-09-30T10:15:30.734Z,1013.59
2017-09-30T10:16:42.923Z,1013.61
2017-09-30T10:17:55.425Z,1013.61
2017-09-30T10:19:07.627Z,1013.62
2017-09-30T10:20:20.134Z,1013.62
2017-09-30T10:21:32.341Z,1013.65
2017-09-30T10:22:44.525Z,1013.61
2017-09-30T10:23:56.729Z,1013.6
2017-09-30T10:25:09.225Z,1013.57
2017-09-30T10:26:21.095Z,1013.54
2017-09-30T10:27:33.284Z,1013.62
2017-09-30T10:28:45.491Z,1013.61
2017-09-30T10:29:57.988Z,1013.53
2017-09-30T10:31:10.171Z,1013.55
2017-09-30T10:32:22.348Z,1013.53
2017-09-30T10:33:34.212Z,1013.53
2017-09-30T10:34:46.389Z,1013.53
2017-09-30T10:35:58.261Z,1013.48
2017-09-30T10:37:10.757Z,1013.43
2017-09-30T10:38:23.251Z,1013.44
2017-09-30T10:39:35.427Z,1013.44
2017-09-30T10:40:47.919Z,1013.49
2017-09-30T10:42:00.089Z,1013.44
2017-09-30T10:43:11.965Z,1013.43
2017-09-30T10:44:24.148Z,1013.48
2017-09-30T10:45:36.052Z,1013.44
2017-09-30T10:46:48.245Z,1013.44
2017-09-30T10:48:00.418Z,1013.48
2017-09-30T10:49:12.288Z,1013.42
2017-09-30T10:50:24.501Z,1013.35
2017-09-30T10:51:37.004Z,1013.44
2017-09-30T10:52:49.175Z,1013.42
2017-09-30T10:54:01.071Z,1013.4
2017-09-30T10:55:13.591Z,1013.39
2017-09-30T10:56:25.762Z,1013.36
2017-09-30T10:57:38.257Z,1013.35
2017-09-30T10:58:50.753Z,1013.34
2017-09-30T11:00:03.249Z,1013.31
2017-09-30T11:01:15.419Z,1013.32
2017-09-30T11:02:27.615Z,1013.26
2017-09-30T11:03:40.114Z,1013.27
2017-09-30T11:04:51.998Z,1013.23
2017-09-30T11:06:04.177Z,1013.19
2017-09-30T11:07:16.690Z,1013.2
2017-09-30T11:08:28.868Z,1013.21
2017-09-30T11:09:41.056Z,1013.18
2017-09-30T11:10:53.260Z,1013.17
2017-09-30T11:12:05.447Z,1013.21
2017-09-30T11:13:17.626Z,1013.16
2017-09-30T11:14:29.796Z,1013.12
2017-09-30T11:15:41.970Z,1013.16
2017-09-30T11:16:54.163Z,1013.09
2017-09-30T11:18:06.337Z,1013.1
2017-09-30T11:19:18.221Z,1013.17
2017-09-30T11:20:30.717Z,1013.09
2017-09-30T11:21:42.898Z,1013.13
2017-09-30T11:22:54.791Z,1013.14
2017-09-30T11:24:06.979Z,1013.14
2017-09-30T11:25:18.858Z,1013.12
2017-09-30T11:26:31.354Z,1013.12
2017-09-30T11:27:43.541Z,1013.08
2017-09-30T11:28:56.021Z,1013.05
2017-09-30T11:30:08.217Z,1013.08
2017-09-30T11:31:20.411Z,1013.1
2017-09-30T11:32:32.582Z,1013.08
2017-09-30T11:33:45.069Z,1013.06
2017-09-30T11:34:57.248Z,1013.08
2017-09-30T11:36:09.118Z,1013.03
2017-09-30T11:37:21.306Z,1013.01
2017-09-30T11:38:33.802Z,1013.03
2017-09-30T11:39:46.297Z,1012.96
2017-09-30T11:40:58.493Z,1013.05
2017-09-30T11:42:10.389Z,1012.96
2017-09-30T11:43:22.870Z,1012.93
2017-09-30T11:44:35.362Z,1012.93
2017-09-30T11:45:47.250Z,1012.88
2017-09-30T11:46:59.729Z,1012.88
2017-09-30T11:48:11.868Z,1012.91
2017-09-30T11:49:24.045Z,1012.87
2017-09-30T11:50:36.233Z,1012.85
2017-09-30T11:51:48.112Z,1012.87
2017-09-30T11:53:00.608Z,1012.83
2017-09-30T11:54:12.795Z,1012.84
2017-09-30T11:55:24.674Z,1012.79
2017-09-30T11:56:37.170Z,1012.72
2017-09-30T11:57:49.667Z,1012.72
2017-09-30T11:59:02.411Z,1012.73
2017-09-30T12:00:14.905Z,1012.74
2017-09-30T12:01:27.097Z,1012.7
2017-09-30T12:02:39.572Z,1012.65
2017-09-30T12:03:51.461Z,1012.72
2017-09-30T12:05:03.943Z,1012.65
2017-09-30T12:06:16.437Z,1012.7
2017-09-30T12:07:28.955Z,1012.67
2017-09-30T12:08:40.844Z,1012.68
2017-09-30T12:09:53.350Z,1012.64
2017-09-30T12:11:05.541Z,1012.69
2017-09-30T12:12:17.737Z,1012.7
2017-09-30T12:13:30.226Z,1012.74
2017-09-30T12:14:42.403Z,1012.72
2017-09-30T12:15:53.954Z,1012.62
2017-09-30T12:17:05.846Z,1012.66
2017-09-30T12:18:18.064Z,1012.64
2017-09-30T12:19:30.562Z,1012.62
2017-09-30T12:20:43.057Z,1012.61
2017-09-30T12:21:55.254Z,1012.59
2017-09-30T12:23:07.149Z,1012.54
2017-09-30T12:24:19.343Z,1012.53
2017-09-30T12:25:31.516Z,1012.59
2017-09-30T12:26:43.686Z,1012.56
2017-09-30T12:27:56.181Z,1012.56
2017-09-30T12:29:08.677Z,1012.5
2017-09-30T12:30:21.175Z,1012.55
2017-09-30T12:31:33.669Z,1012.51
2017-09-30T12:32:46.164Z,1012.49
2017-09-30T12:33:58.352Z,1012.51
2017-09-30T12:35:10.855Z,1012.48
2017-09-30T12:36:22.752Z,1012.49
2017-09-30T12:37:35.246Z,1012.44
2017-09-30T12:38:47.743Z,1012.4
2017-09-30T12:39:59.938Z,1012.44
2017-09-30T12:41:12.437Z,1012.4
2017-09-30T12:42:25.197Z,1012.41
2017-09-30T12:43:37.374Z,1012.39
2017-09-30T12:44:49.271Z,1012.43
2017-09-30T12:46:01.808Z,1012.35
2017-09-30T12:47:14.287Z,1012.43
2017-09-30T12:48:26.775Z,1012.37
2017-09-30T12:49:39.256Z,1012.45
2017-09-30T12:50:51.449Z,1012.33
2017-09-30T12:52:03.945Z,1012.4
2017-09-30T12:53:15.839Z,1012.38
2017-09-30T12:54:28.336Z,1012.37
2017-09-30T12:55:40.830Z,1012.3
2017-09-30T12:56:53.326Z,1012.38
2017-09-30T12:58:05.515Z,1012.37
2017-09-30T12:59:17.393Z,1012.26
2017-09-30T13:00:29.888Z,1012.35
2017-09-30T13:01:42.385Z,1012.27
2017-09-30T13:02:54.580Z,1012.33
2017-09-30T13:04:07.075Z,1012.27
2017-09-30T13:05:19.572Z,1012.3
2017-09-30T13:06:31.768Z,1012.22
2017-09-30T13:07:43.963Z,1012.28
2017-09-30T13:08:56.158Z,1012.23
2017-09-30T13:10:08.654Z,1012.2
2017-09-30T13:11:20.843Z,1012.25
2017-09-30T13:12:33.021Z,1012.22
2017-09-30T13:13:45.216Z,1012.2
2017-09-30T13:14:57.962Z,1012.14
2017-09-30T13:16:10.161Z,1012.17
2017-09-30T13:17:22.653Z,1012.19
2017-09-30T13:18:34.547Z,1012.24
2017-09-30T13:19:46.720Z,1012.18
2017-09-30T13:20:58.914Z,1012.17
2017-09-30T13:22:10.778Z,1012.19
2017-09-30T13:23:23.305Z,1012.18
2017-09-30T13:24:35.501Z,1012.17
2017-09-30T13:25:47.997Z,1012.15
2017-09-30T13:27:00.192Z,1012.17
2017-09-30T13:28:12.689Z,1012.2
2017-09-30T13:29:24.909Z,1012.13
2017-09-30T13:30:37.406Z,1012.16
2017-09-30T13:31:49.601Z,1012.15
2017-09-30T13:33:01.800Z,1012.12
2017-09-30T13:34:14.292Z,1012.13
2017-09-30T13:35:26.505Z,1012.14
2017-09-30T13:36:38.684Z,1012.15
2017-09-30T13:37:50.879Z,1012.18
2017-09-30T13:39:03.376Z,1012.19
2017-09-30T13:40:15.272Z,1012.19
2017-09-30T13:41:26.859Z,1012.25
2017-09-30T13:42:39.053Z,1012.22
2017-09-30T13:43:51.557Z,1012.22
2017-09-30T13:45:03.753Z,1012.14
2017-09-30T13:46:15.949Z,1012.26
2017-09-30T13:47:27.836Z,1012.25
2017-09-30T13:48:40.315Z,1012.3
2017-09-30T13:49:52.811Z,1012.27
2017-09-30T13:51:05.306Z,1012.29
2017-09-30T13:52:17.795Z,1012.29
2017-09-30T13:53:30.298Z,1012.26
2017-09-30T13:54:42.817Z,1012.2
2017-09-30T13:55:55.314Z,1012.22
2017-09-30T13:57:07.809Z,1012.23
2017-09-30T13:58:20.305Z,1012.22
2017-09-30T13:59:32.176Z,1012.15
2017-09-30T14:00:44.046Z,1012.18
2017-09-30T14:01:56.242Z,1012.21
2017-09-30T14:03:08.442Z,1012.18
2017-09-30T14:04:20.633Z,1012.17
2017-09-30T14:05:32.828Z,1012.16
2017-09-30T14:06:45.324Z,1012.11
2017-09-30T14:07:57.212Z,1012.06
2017-09-30T14:09:09.691Z,1012.12
2017-09-30T14:10:21.578Z,1012.07
2017-09-30T14:11:34.074Z,1012.12
2017-09-30T14:12:45.646Z,1012.09
2017-09-30T14:13:57.898Z,1012.16
2017-09-30T14:15:10.483Z,1012.12
2017-09-30T14:16:22.764Z,1012.12
2017-09-30T14:17:35.286Z,1012.08
2017-09-30T14:18:47.458Z,1012.11
2017-09-30T14:19:59.352Z,1012.08
2017-09-30T14:21:11.847Z,1012.06
2017-09-30T14:22:23.721Z,1012.07
2017-09-30T14:23:35.914Z,1012.07
2017-09-30T14:24:48.109Z,1012.01
2017-09-30T14:26:00.608Z,1011.97
2017-09-30T14:27:13.121Z,1012
2017-09-30T14:28:25.295Z,1011.97
2017-09-30T14:29:37.791Z,1011.97
2017-09-30T14:30:49.963Z,1011.93
2017-09-30T14:32:02.458Z,1011.94
2017-09-30T14:33:14.046Z,1011.93
2017-09-30T14:34:26.556Z,1011.95
2017-09-30T14:35:39.044Z,1011.95
2017-09-30T14:36:51.241Z,1011.92